Terminal Aerodrome Forecast
Issued by NWS Twin Cities, MN

Home | Current Version | Previous Version | Graphics & Text | Print | Product List | Glossary On
Versions: 1 2 3 4 5 6 7 8 9 10 11 12 13
388
FTUS43 KMPX 161734
TAFEAU
TAF
KEAU 161734Z 1618/1718 24009KT P6SM SKC
     FM170000 19006KT P6SM SCT250
     FM170800 19006KT P6SM BKN100
     FM171200 20007KT 6SM -SN OVC030
     FM171700 23008KT 6SM -SN OVC030=

USA.gov is the U.S. government's official web portal to all federal, state and local government web resources and services.